Time;durP1;ratioP1;P1;durP2;ratioP2;P2;SDS_P1;SDS_P2;PMS_P1;PMS_P2;Temp;Humidity;BMP_temperature;BMP_pressure;BME280_temperature;BME280_humidity;BME280_pressure;Samples;Min_cycle;Max_cycle;Signal;HPM_P1;HPM_P2
2023/08/21 00:02:04;;;;;;;14.00;11.60;;;;;;;25.72;53.84;100578.30;104990;1257;60562;-62
2023/08/21 00:04:33;;;;;;;13.00;11.10;;;;;;;25.68;53.63;100577.10;105320;1254;67114;-61
2023/08/21 00:07:01;;;;;;;12.80;11.00;;;;;;;25.64;53.84;100577.50;105277;1254;61381;-61
2023/08/21 00:09:28;;;;;;;13.20;11.50;;;;;;;25.63;53.81;100574.92;105179;1259;63678;-60
2023/08/21 00:11:56;;;;;;;13.30;11.00;;;;;;;25.66;53.62;100577.07;105266;1254;60496;-60
2023/08/21 00:14:23;;;;;;;14.70;10.70;;;;;;;25.68;53.46;100575.98;105318;1254;60478;-62
2023/08/21 00:16:51;;;;;;;12.80;11.40;;;;;;;25.69;53.36;100575.39;105205;1262;65104;-60
2023/08/21 00:19:19;;;;;;;12.70;11.40;;;;;;;25.68;53.36;100572.46;105601;1254;61351;-60
2023/08/21 00:21:47;;;;;;;14.60;11.80;;;;;;;25.64;53.44;100570.11;105359;1262;63679;-65
2023/08/21 00:24:15;;;;;;;13.40;11.20;;;;;;;25.62;53.59;100570.96;105308;1256;60486;-64
2023/08/21 00:26:43;;;;;;;12.60;10.90;;;;;;;25.58;53.74;100571.48;105509;1254;60520;-66
2023/08/21 00:29:10;;;;;;;12.10;10.80;;;;;;;25.54;53.77;100570.60;105295;1254;63621;-64
2023/08/21 00:31:38;;;;;;;13.60;10.50;;;;;;;25.51;53.81;100575.43;105394;1255;61408;-65
2023/08/21 00:34:06;;;;;;;15.10;11.10;;;;;;;25.47;53.75;100582.79;105235;1254;63823;-65
2023/08/21 00:36:33;;;;;;;12.20;10.90;;;;;;;25.43;53.68;100587.29;105437;1255;60541;-64
2023/08/21 00:39:01;;;;;;;14.10;11.00;;;;;;;25.40;53.60;100586.47;105229;1254;60479;-66
2023/08/21 00:41:29;;;;;;;16.10;11.50;;;;;;;25.37;53.60;100588.73;105208;1254;64940;-64
2023/08/21 00:43:57;;;;;;;12.60;10.80;;;;;;;25.33;53.50;100587.10;105376;1254;61451;-64
2023/08/21 00:46:25;;;;;;;15.20;10.50;;;;;;;25.30;53.73;100591.62;105219;1259;63759;-61
2023/08/21 00:48:52;;;;;;;15.00;12.10;;;;;;;25.31;53.92;100594.73;105265;1259;60450;-65
2023/08/21 00:51:20;;;;;;;12.00;10.70;;;;;;;25.35;53.88;100596.91;105167;1263;60441;-62
2023/08/21 00:53:47;;;;;;;15.20;11.30;;;;;;;25.35;54.12;100596.61;105215;1254;64885;-64
2023/08/21 00:56:47;;;;;;;13.30;11.10;;;;;;;25.34;54.13;100595.70;105251;1254;61352;-65
2023/08/21 00:59:19;;;;;;;12.30;11.10;;;;;;;25.35;53.97;100597.15;105198;1254;63759;-63
2023/08/21 01:02:28;;;;;;;15.20;11.60;;;;;;;25.35;53.76;100593.95;104902;1257;60620;-62
2023/08/21 01:04:57;;;;;;;14.30;11.50;;;;;;;25.32;53.67;100590.66;104788;1264;60305;-63
2023/08/21 01:07:28;;;;;;;13.50;11.10;;;;;;;25.28;53.60;100591.21;104831;1258;65026;-63
2023/08/21 01:10:03;;;;;;;12.10;10.60;;;;;;;25.22;53.69;100589.64;104957;1257;61359;-63
2023/08/21 01:12:49;;;;;;;12.60;11.30;;;;;;;25.15;53.84;100585.04;104893;1260;62518;-63
2023/08/21 01:16:07;;;;;;;13.70;11.80;;;;;;;25.10;54.45;100586.46;104922;1260;60559;-62
2023/08/21 01:18:35;;;;;;;15.60;11.00;;;;;;;25.05;55.19;100589.71;104571;1261;60582;-61
2023/08/21 01:21:04;;;;;;;12.50;10.30;;;;;;;25.04;55.50;100591.45;104623;1263;64919;-62
2023/08/21 01:23:35;;;;;;;12.50;11.20;;;;;;;25.06;55.41;100594.60;104952;1264;61234;-64
2023/08/21 01:26:04;;;;;;;13.10;10.80;;;;;;;25.07;55.49;100596.37;104915;1261;63736;-65
2023/08/21 01:28:32;;;;;;;13.50;12.10;;;;;;;25.08;56.25;100593.27;104773;1263;60522;-65
2023/08/21 01:31:07;;;;;;;14.80;11.80;;;;;;;25.07;56.59;100591.20;104801;1262;60637;-59
2023/08/21 01:33:37;;;;;;;13.60;12.10;;;;;;;25.05;56.52;100592.90;104926;1263;63781;-63
2023/08/21 01:36:04;;;;;;;14.50;11.40;;;;;;;25.03;56.45;100592.99;105207;1265;60561;-56
2023/08/21 01:38:33;;;;;;;13.60;11.40;;;;;;;25.00;56.47;100597.10;104853;1260;63766;-55
2023/08/21 01:41:02;;;;;;;13.10;11.60;;;;;;;24.99;56.48;100601.75;105244;1260;60748;-55
2023/08/21 01:43:32;;;;;;;13.20;10.60;;;;;;;25.02;56.50;100609.86;105327;1260;60552;-56
2023/08/21 01:46:01;;;;;;;13.30;10.70;;;;;;;25.00;56.59;100609.58;105065;1262;76011;-56
2023/08/21 01:48:47;;;;;;;14.80;11.70;;;;;;;24.96;56.61;100610.45;105077;1262;60970;-56
2023/08/21 01:51:23;;;;;;;13.20;11.10;;;;;;;24.91;56.50;100610.14;104893;1265;63943;-54
2023/08/21 01:53:51;;;;;;;13.00;11.60;;;;;;;24.85;56.65;100611.77;104819;1263;60562;-54
2023/08/21 01:56:18;;;;;;;13.20;11.40;;;;;;;24.81;56.55;100614.27;105228;1257;60655;-55
2023/08/21 01:58:52;;;;;;;12.70;11.40;;;;;;;24.76;56.49;100614.83;105182;1262;65027;-56
2023/08/21 02:01:19;;;;;;;13.10;11.70;;;;;;;24.68;56.43;100611.27;105042;1254;61998;-55
2023/08/21 02:03:47;;;;;;;12.10;10.80;;;;;;;24.63;56.54;100612.23;104682;1257;62542;-56
2023/08/21 02:06:15;;;;;;;12.80;11.10;;;;;;;24.60;56.78;100614.14;105122;1259;60569;-55
2023/08/21 02:08:42;;;;;;;15.50;11.30;;;;;;;24.54;56.92;100616.41;105178;1254;60563;-57
2023/08/21 02:11:11;;;;;;;15.00;11.40;;;;;;;24.48;57.03;100621.83;105220;1254;64927;-56
2023/08/21 02:13:38;;;;;;;13.40;12.00;;;;;;;24.41;56.85;100624.69;105256;1262;60447;-55
2023/08/21 02:16:06;;;;;;;12.20;10.90;;;;;;;24.33;56.89;100625.49;105169;1256;63726;-54
2023/08/21 02:18:33;;;;;;;14.00;12.20;;;;;;;24.27;56.98;100629.55;105673;1254;60514;-55
2023/08/21 02:21:01;;;;;;;13.30;11.10;;;;;;;24.24;56.97;100624.42;105317;1259;60665;-52
2023/08/21 02:23:29;;;;;;;14.20;12.00;;;;;;;24.23;56.88;100621.81;105422;1259;64927;-55
2023/08/21 02:25:57;;;;;;;12.70;10.90;;;;;;;24.28;56.91;100620.77;106215;1259;301922;-54
2023/08/21 02:30:27;;;;;;;13.50;10.70;;;;;;;24.14;57.44;100617.67;102472;1294;601592;-56
2023/08/21 02:32:56;;;;;;;13.50;10.50;;;;;;;24.35;57.37;100615.48;104830;1266;59299;-56
2023/08/21 02:35:24;;;;;;;13.10;11.80;;;;;;;24.40;57.75;100617.49;104368;1270;62756;-56
2023/08/21 02:37:51;;;;;;;15.00;12.40;;;;;;;24.42;57.96;100615.84;104690;1266;63358;-56
2023/08/21 02:40:19;;;;;;;14.50;12.70;;;;;;;24.42;58.10;100617.23;104494;1266;61376;-56
2023/08/21 02:42:46;;;;;;;13.80;11.70;;;;;;;24.43;57.91;100616.09;104450;1267;63765;-57
2023/08/21 02:45:14;;;;;;;13.20;11.30;;;;;;;24.43;57.76;100615.63;104394;1266;228723;-52
2023/08/21 02:47:42;;;;;;;13.70;12.10;;;;;;;24.43;57.82;100612.77;104493;1263;59260;-49
2023/08/21 02:50:09;;;;;;;13.40;12.00;;;;;;;24.43;57.79;100613.86;105297;1251;63285;-50
2023/08/21 02:52:37;;;;;;;14.00;11.40;;;;;;;24.43;57.77;100612.65;105332;1251;61883;-50
2023/08/21 02:55:06;;;;;;;13.40;11.90;;;;;;;24.41;57.76;100610.91;105490;1251;62559;-49
2023/08/21 02:57:34;;;;;;;11.80;10.70;;;;;;;24.38;58.01;100609.44;105443;1253;59859;-48
2023/08/21 03:00:01;;;;;;;12.90;11.50;;;;;;;24.34;57.84;100614.40;105358;1251;59811;-52
2023/08/21 03:02:29;;;;;;;15.20;11.70;;;;;;;24.34;57.73;100613.74;105430;1251;62826;-51
2023/08/21 03:04:57;;;;;;;12.50;10.70;;;;;;;24.34;57.56;100609.11;105365;1257;61392;-47
2023/08/21 03:07:25;;;;;;;12.80;11.60;;;;;;;24.32;57.66;100607.88;105476;1254;63674;-48
2023/08/21 03:09:54;;;;;;;13.10;11.60;;;;;;;24.30;57.77;100610.33;105643;1251;59699;-51
2023/08/21 03:12:21;;;;;;;13.10;11.80;;;;;;;24.26;57.78;100606.27;105506;1254;59734;-49
2023/08/21 03:14:48;;;;;;;14.10;11.40;;;;;;;24.25;58.01;100606.09;105471;1253;64135;-54
2023/08/21 03:17:16;;;;;;;13.10;11.70;;;;;;;24.23;57.96;100604.77;105427;1253;60110;-57
2023/08/21 03:19:44;;;;;;;16.90;11.50;;;;;;;24.23;57.87;100606.50;105428;1257;63700;-56
2023/08/21 03:22:11;;;;;;;13.50;11.60;;;;;;;24.25;57.91;100604.31;105435;1253;59301;-57
2023/08/21 03:24:40;;;;;;;12.60;11.20;;;;;;;24.24;57.94;100607.75;105415;1251;59769;-56
2023/08/21 03:27:08;;;;;;;13.10;11.40;;;;;;;24.20;57.83;100608.79;105544;1251;64027;-56
2023/08/21 03:29:35;;;;;;;14.40;12.30;;;;;;;24.16;57.99;100611.96;105580;1254;61401;-53
2023/08/21 03:32:03;;;;;;;13.40;12.00;;;;;;;24.14;58.10;100611.64;105356;1257;62705;-56
2023/08/21 03:34:31;;;;;;;14.60;12.20;;;;;;;24.08;58.50;100613.99;105264;1254;59750;-56
2023/08/21 03:37:00;;;;;;;13.10;11.10;;;;;;;24.03;58.59;100615.69;105402;1252;59752;-56
2023/08/21 03:39:29;;;;;;;13.60;12.20;;;;;;;24.02;58.67;100616.89;105503;1251;64806;-56
2023/08/21 03:42:15;;;;;;;13.10;11.10;;;;;;;23.99;58.67;100614.98;105192;1251;61288;-56
2023/08/21 03:44:49;;;;;;;12.60;11.10;;;;;;;23.94;58.67;100613.48;105604;1254;63681;-56
2023/08/21 03:47:17;;;;;;;13.90;11.80;;;;;;;23.91;58.73;100610.80;105154;1259;59755;-57
2023/08/21 03:49:58;;;;;;;15.10;12.70;;;;;;;23.90;58.92;100613.59;105627;1256;59583;-56
2023/08/21 03:52:26;;;;;;;14.20;11.40;;;;;;;23.91;59.09;100613.73;105466;1256;64115;-56
2023/08/21 03:54:53;;;;;;;13.40;11.90;;;;;;;23.95;59.18;100613.41;105290;1251;62610;-56
2023/08/21 03:57:21;;;;;;;14.40;11.40;;;;;;;24.03;59.20;100615.56;105368;1253;63751;-56
2023/08/21 03:59:48;;;;;;;12.20;11.00;;;;;;;24.12;59.19;100613.83;105374;1253;59703;-56
2023/08/21 04:02:16;;;;;;;14.90;11.70;;;;;;;24.18;59.15;100610.35;105397;1253;60207;-54
2023/08/21 04:04:43;;;;;;;12.60;11.30;;;;;;;24.23;59.16;100609.08;105166;1255;64052;-51
2023/08/21 04:07:12;;;;;;;15.00;12.10;;;;;;;24.29;59.18;100605.88;105298;1254;61441;-48
2023/08/21 04:09:40;;;;;;;13.80;12.10;;;;;;;24.34;59.04;100610.10;104969;1255;71855;-53
2023/08/21 04:12:07;;;;;;;13.70;12.30;;;;;;;24.39;59.01;100611.63;105116;1252;59755;-52
2023/08/21 04:14:35;;;;;;;13.70;11.80;;;;;;;24.43;58.90;100616.00;105267;1253;59664;-51
2023/08/21 04:17:03;;;;;;;13.40;12.00;;;;;;;24.46;58.63;100614.39;105371;1253;62882;-51
2023/08/21 04:19:33;;;;;;;14.10;12.50;;;;;;;24.47;58.64;100611.95;105337;1253;61921;-53
2023/08/21 04:22:02;;;;;;;13.90;12.40;;;;;;;24.46;58.52;100613.09;105920;1253;63847;-49
2023/08/21 04:24:29;;;;;;;13.20;11.70;;;;;;;24.45;58.57;100612.44;105885;1256;59744;-51
2023/08/21 04:26:58;;;;;;;13.40;12.00;;;;;;;24.44;58.61;100614.48;105174;1253;60266;-54
2023/08/21 04:29:25;;;;;;;12.70;11.50;;;;;;;24.44;58.62;100613.44;106129;1252;62873;-53
2023/08/21 04:31:54;;;;;;;13.50;11.80;;;;;;;24.48;58.51;100611.02;105371;1257;60258;-53
2023/08/21 04:34:53;;;;;;;15.50;12.30;;;;;;;24.55;58.50;100610.88;104377;1263;63755;-54
2023/08/21 04:37:21;;;;;;;18.80;11.60;;;;;;;24.61;58.45;100612.58;105205;1259;59753;-55
2023/08/21 04:39:51;;;;;;;12.90;11.60;;;;;;;24.66;58.47;100613.31;105138;1259;60530;-56
2023/08/21 04:42:19;;;;;;;13.70;11.90;;;;;;;24.71;58.54;100611.65;104747;1255;64131;-52
2023/08/21 04:44:47;;;;;;;12.90;11.20;;;;;;;24.74;58.41;100610.70;105111;1255;60162;-54
2023/08/21 04:47:46;;;;;;;13.20;11.30;;;;;;;24.81;58.35;100616.02;104944;1256;63785;-52
2023/08/21 04:51:10;;;;;;;13.80;12.00;;;;;;;24.90;58.25;100613.83;105084;1259;60915;-51
2023/08/21 04:54:09;;;;;;;13.20;11.90;;;;;;;24.96;58.07;100617.98;104840;1263;59566;-53
2023/08/21 04:56:37;;;;;;;13.80;12.30;;;;;;;25.00;57.80;100618.73;105256;1254;64134;-51
2023/08/21 04:59:04;;;;;;;17.00;12.30;;;;;;;25.02;57.87;100619.95;105265;1256;62820;-52
2023/08/21 05:01:32;;;;;;;13.90;11.20;;;;;;;25.07;57.87;100622.10;105190;1261;62415;-49
2023/08/21 05:04:08;;;;;;;15.10;12.10;;;;;;;25.17;57.63;100618.66;105016;1264;59742;-50
2023/08/21 05:07:01;;;;;;;12.80;11.40;;;;;;;25.30;57.32;100615.52;105227;1260;59241;-50
2023/08/21 05:10:27;;;;;;;14.40;11.40;;;;;;;25.41;57.00;100619.04;104792;1255;62939;-52
2023/08/21 05:13:04;;;;;;;;;;;;;;;25.49;56.94;100616.30;105378;1253;62033;-53
2023/08/21 05:15:38;;;;;;;13.90;12.60;;;;;;;25.56;56.95;100617.09;104935;1257;63755;-52
2023/08/21 05:18:05;;;;;;;12.50;11.20;;;;;;;25.62;56.62;100617.17;105305;1256;59664;-53
2023/08/21 05:20:33;;;;;;;12.60;11.10;;;;;;;25.70;56.42;100619.02;105464;1257;59557;-56
2023/08/21 05:23:00;;;;;;;13.80;11.30;;;;;;;25.80;56.33;100621.05;105477;1253;64118;-52
2023/08/21 05:25:32;;;;;;;15.10;11.30;;;;;;;25.86;56.28;100618.92;105574;1253;61910;-53
2023/08/21 05:27:59;;;;;;;14.10;12.60;;;;;;;25.91;56.32;100614.13;105520;1257;62515;-54
2023/08/21 05:30:27;;;;;;;12.50;11.10;;;;;;;25.97;56.19;100615.80;105382;1255;59663;-53
2023/08/21 05:32:55;;;;;;;13.90;11.20;;;;;;;26.03;56.20;100617.46;105376;1257;59579;-54
2023/08/21 05:35:23;;;;;;;14.10;11.70;;;;;;;26.09;56.05;100620.08;105498;1253;64063;-54
2023/08/21 05:37:51;;;;;;;12.60;11.10;;;;;;;26.16;55.78;100618.02;105617;1253;61505;-54
2023/08/21 05:40:20;;;;;;;12.70;11.40;;;;;;;26.26;55.48;100622.09;105453;1261;62416;-54
2023/08/21 05:42:48;;;;;;;15.40;11.60;;;;;;;26.36;54.76;100623.70;105479;1251;59701;-49
2023/08/21 05:45:17;;;;;;;18.60;12.70;;;;;;;26.42;54.47;100621.61;105412;1258;59554;-55
2023/08/21 05:47:44;;;;;;;14.00;11.80;;;;;;;26.46;54.30;100625.56;105909;1253;63076;-51
2023/08/21 05:50:12;;;;;;;14.60;10.90;;;;;;;26.48;54.63;100627.65;105387;1254;61200;-48
2023/08/21 05:52:39;;;;;;;16.50;11.70;;;;;;;26.54;55.08;100625.32;105572;1256;62489;-55
2023/08/21 05:55:10;;;;;;;13.40;12.00;;;;;;;26.64;55.04;100626.39;105224;1258;59912;-52
2023/08/21 05:57:38;;;;;;;17.40;12.10;;;;;;;26.74;54.51;100625.05;105348;1253;59776;-54
2023/08/21 06:00:09;;;;;;;15.40;12.00;;;;;;;26.80;54.21;100623.79;105532;1251;64743;-54
2023/08/21 06:02:42;;;;;;;14.30;12.50;;;;;;;26.84;53.87;100624.38;105577;1256;60154;-55
2023/08/21 06:05:15;;;;;;;14.00;11.80;;;;;;;26.85;53.92;100621.95;105518;1257;62525;-53
2023/08/21 06:07:43;;;;;;;14.80;11.40;;;;;;;26.88;54.15;100621.79;105476;1253;59724;-52
2023/08/21 06:10:14;;;;;;;13.40;11.90;;;;;;;26.91;54.05;100619.55;105507;1254;59703;-52
2023/08/21 06:12:42;;;;;;;13.50;12.10;;;;;;;26.97;53.70;100621.02;105323;1253;64161;-54
2023/08/21 06:15:10;;;;;;;19.00;11.70;;;;;;;27.01;53.73;100619.08;105481;1253;61377;-54
2023/08/21 06:17:38;;;;;;;15.80;12.10;;;;;;;27.03;53.77;100620.92;105548;1253;63704;-54
2023/08/21 06:20:08;;;;;;;13.00;11.70;;;;;;;27.07;54.14;100621.86;105654;1253;59653;-54
2023/08/21 06:22:36;;;;;;;13.60;12.00;;;;;;;27.15;54.41;100625.27;105515;1254;59739;-52
2023/08/21 06:25:05;;;;;;;13.70;12.10;;;;;;;27.22;54.15;100626.04;105440;1257;64073;-54
2023/08/21 06:27:32;;;;;;;14.90;12.40;;;;;;;27.28;53.82;100626.78;105352;1257;60221;-53
2023/08/21 06:30:16;;;;;;;12.70;11.40;;;;;;;27.35;53.25;100631.36;105323;1253;62505;-50
2023/08/21 06:32:44;;;;;;;15.80;11.10;;;;;;;27.41;53.38;100629.16;105518;1257;59648;-51
2023/08/21 06:35:13;;;;;;;14.40;11.10;;;;;;;27.48;53.40;100630.64;105541;1254;59553;-51
2023/08/21 06:37:41;;;;;;;14.40;12.90;;;;;;;27.53;52.89;100627.32;105464;1253;64161;-52
2023/08/21 06:40:09;;;;;;;14.60;12.10;;;;;;;27.56;52.61;100630.19;105377;1254;61416;-52
2023/08/21 06:42:37;;;;;;;17.40;11.90;;;;;;;27.57;52.83;100627.69;105670;1253;63783;-54
2023/08/21 06:45:06;;;;;;;15.80;12.70;;;;;;;27.61;53.16;100627.09;105426;1253;60453;-55
2023/08/21 06:47:34;;;;;;;15.40;12.70;;;;;;;27.65;52.68;100625.45;105605;1253;60072;-55
2023/08/21 06:50:01;;;;;;;18.90;13.70;;;;;;;27.69;52.57;100627.44;105506;1256;64846;-55
2023/08/21 06:52:29;;;;;;;15.50;11.80;;;;;;;27.73;52.04;100628.80;105700;1253;61372;-57
2023/08/21 06:54:57;;;;;;;14.60;13.00;;;;;;;27.79;52.25;100628.79;105711;1253;63745;-58
2023/08/21 06:57:24;;;;;;;12.60;11.30;;;;;;;27.85;52.21;100628.35;105436;1254;60398;-57
2023/08/21 06:59:52;;;;;;;17.10;12.30;;;;;;;27.91;52.51;100624.77;105510;1252;60574;-56
2023/08/21 07:02:19;;;;;;;12.80;11.30;;;;;;;27.97;52.09;100626.30;105331;1258;65132;-55
2023/08/21 07:04:47;;;;;;;13.90;12.40;;;;;;;28.02;51.94;100620.80;105526;1257;60454;-56
2023/08/21 07:07:14;;;;;;;13.00;11.60;;;;;;;28.05;51.94;100619.79;105492;1253;64740;-57
2023/08/21 07:09:42;;;;;;;13.10;11.70;;;;;;;28.06;51.92;100619.06;105652;1253;60883;-56
2023/08/21 07:12:09;;;;;;;14.00;11.20;;;;;;;28.08;51.68;100621.62;105638;1253;60553;-56
2023/08/21 07:14:37;;;;;;;12.90;11.50;;;;;;;28.10;51.84;100623.13;105514;1257;64904;-58
2023/08/21 07:17:05;;;;;;;15.70;12.20;;;;;;;28.14;52.27;100620.73;105643;1253;61603;-58
2023/08/21 07:19:32;;;;;;;12.60;11.40;;;;;;;28.20;52.29;100620.09;105444;1253;63675;-56
2023/08/21 07:22:00;;;;;;;13.30;11.90;;;;;;;28.27;51.97;100621.34;105577;1252;60553;-55
2023/08/21 07:24:27;;;;;;;12.40;11.10;;;;;;;28.35;51.72;100620.17;105534;1251;60448;-55
2023/08/21 07:26:55;;;;;;;18.20;12.30;;;;;;;28.42;51.71;100615.74;105658;1256;64852;-56
2023/08/21 07:29:22;;;;;;;13.00;11.30;;;;;;;28.50;51.77;100614.23;105562;1256;60498;-57
2023/08/21 07:31:50;;;;;;;13.60;12.00;;;;;;;28.56;51.61;100614.17;105438;1253;64907;-57
2023/08/21 07:34:18;;;;;;;13.80;11.40;;;;;;;28.64;51.41;100610.08;105791;1254;60563;-55
2023/08/21 07:36:45;;;;;;;13.50;11.20;;;;;;;28.71;51.28;100610.24;105455;1253;60558;-55
2023/08/21 07:39:13;;;;;;;13.20;11.90;;;;;;;28.77;51.01;100608.52;105759;1255;64865;-54
2023/08/21 07:41:53;;;;;;;13.60;11.90;;;;;;;28.80;50.31;100604.86;105588;1251;62947;-57
2023/08/21 07:44:20;;;;;;;13.50;11.90;;;;;;;28.84;50.24;100604.70;105257;1262;63812;-56
2023/08/21 07:46:50;;;;;;;12.40;11.10;;;;;;;28.86;50.28;100605.13;105456;1253;60585;-56
2023/08/21 07:49:18;;;;;;;12.80;11.30;;;;;;;28.90;50.22;100605.96;105560;1254;60800;-56
2023/08/21 07:51:46;;;;;;;11.70;10.50;;;;;;;28.93;50.03;100604.30;105538;1258;64881;-55
2023/08/21 07:54:13;;;;;;;14.40;11.70;;;;;;;28.96;49.79;100604.67;105637;1253;61974;-55
2023/08/21 07:56:41;;;;;;;12.40;11.10;;;;;;;28.99;49.81;100602.25;105585;1253;63725;-55
2023/08/21 07:59:09;;;;;;;15.00;11.50;;;;;;;29.02;49.47;100598.93;105619;1253;60458;-56
2023/08/21 08:01:37;;;;;;;12.30;10.60;;;;;;;29.05;49.88;100595.94;105525;1257;60534;-56
2023/08/21 08:04:05;;;;;;;14.00;11.00;;;;;;;29.08;49.60;100598.77;105448;1253;64953;-56
2023/08/21 08:06:33;;;;;;;12.50;10.70;;;;;;;29.10;49.22;100599.05;105577;1258;61541;-57
2023/08/21 08:09:00;;;;;;;12.90;10.80;;;;;;;29.12;49.14;100600.60;105797;1252;66075;-57
2023/08/21 08:11:28;;;;;;;11.60;10.00;;;;;;;29.16;48.73;100600.48;105452;1251;60534;-57
2023/08/21 08:13:56;;;;;;;12.30;11.00;;;;;;;29.20;48.67;100599.73;105609;1254;60485;-57
2023/08/21 08:16:23;;;;;;;13.80;11.00;;;;;;;29.25;48.79;100596.63;105711;1253;64973;-55
2023/08/21 08:18:51;;;;;;;14.30;10.50;;;;;;;29.31;48.59;100597.17;105641;1257;61414;-57
2023/08/21 08:21:19;;;;;;;12.60;10.10;;;;;;;29.36;47.85;100594.65;105765;1253;62443;-55
2023/08/21 08:23:46;;;;;;;13.90;10.40;;;;;;;29.38;47.39;100591.34;105654;1253;60548;-55
2023/08/21 08:26:13;;;;;;;12.20;9.90;;;;;;;29.43;47.62;100591.53;105511;1253;60567;-54
2023/08/21 08:28:41;;;;;;;15.50;10.70;;;;;;;29.49;47.37;100590.98;105548;1253;63751;-56
2023/08/21 08:31:18;;;;;;;14.30;10.50;;;;;;;29.55;47.31;100589.09;105510;1253;62161;-55
2023/08/21 08:33:46;;;;;;;11.50;10.20;;;;;;;29.60;47.24;100587.51;105736;1253;64273;-57
2023/08/21 08:36:14;;;;;;;13.80;10.80;;;;;;;29.66;47.86;100586.02;105588;1258;60455;-57
2023/08/21 08:38:51;;;;;;;13.20;11.50;;;;;;;29.72;47.34;100586.08;105469;1258;61021;-57
2023/08/21 08:41:41;;;;;;;15.60;10.30;;;;;;;29.77;46.53;100585.58;105530;1253;64965;-58
2023/08/21 08:44:08;;;;;;;12.30;10.80;;;;;;;29.81;46.50;100586.00;105531;1258;60450;-57
2023/08/21 08:46:37;;;;;;;13.10;10.00;;;;;;;29.84;46.36;100584.46;105572;1253;63695;-54
2023/08/21 08:49:05;;;;;;;16.30;11.20;;;;;;;29.89;46.27;100579.98;106108;1252;60609;-54
2023/08/21 08:51:32;;;;;;;12.30;9.70;;;;;;;29.96;46.25;100578.04;105570;1253;63823;-55
2023/08/21 08:54:00;;;;;;;15.10;11.00;;;;;;;30.05;46.26;100578.93;105587;1260;64959;-54
2023/08/21 08:56:27;;;;;;;13.10;11.30;;;;;;;30.15;45.85;100581.14;105363;1259;60580;-54
2023/08/21 08:58:55;;;;;;;14.20;9.90;;;;;;;30.25;45.37;100579.73;105416;1253;62496;-55
2023/08/21 09:01:22;;;;;;;11.20;9.90;;;;;;;30.37;45.13;100576.05;105505;1253;60903;-55
2023/08/21 09:03:51;;;;;;;12.80;10.80;;;;;;;30.47;44.62;100572.94;105469;1253;60550;-54
2023/08/21 09:06:18;;;;;;;15.30;10.50;;;;;;;30.53;44.20;100573.19;105581;1257;64974;-55
2023/08/21 09:08:56;;;;;;;15.30;10.40;;;;;;;30.56;44.08;100571.56;105513;1253;61644;-58
2023/08/21 09:11:24;;;;;;;11.00;9.80;;;;;;;30.61;44.22;100569.86;105705;1253;63795;-56
2023/08/21 09:14:16;;;;;;;13.00;9.90;;;;;;;30.68;44.16;100569.95;105682;1257;60646;-57
2023/08/21 09:17:03;;;;;;;11.40;10.10;;;;;;;30.78;43.74;100570.13;105532;1253;60643;-56
2023/08/21 09:19:31;;;;;;;10.90;9.70;;;;;;;30.86;43.79;100568.98;105552;1253;65030;-56
2023/08/21 09:22:11;;;;;;;10.20;9.20;;;;;;;30.90;43.49;100565.34;105555;1257;60463;-56
2023/08/21 09:24:39;;;;;;;14.20;9.90;;;;;;;30.90;42.70;100563.70;105505;1257;63695;-60
2023/08/21 09:27:14;;;;;;;10.90;9.20;;;;;;;30.92;43.24;100559.98;105595;1253;60476;-58
2023/08/21 09:29:41;;;;;;;13.10;10.00;;;;;;;30.98;43.37;100559.58;105837;1256;60387;-57
2023/08/21 09:32:11;;;;;;;12.60;10.50;;;;;;;31.04;42.68;100560.09;105480;1253;65056;-57
2023/08/21 09:34:39;;;;;;;11.20;10.10;;;;;;;31.07;42.57;100557.58;105506;1253;61371;-55
2023/08/21 09:37:07;;;;;;;13.50;10.40;;;;;;;31.09;42.37;100553.30;105499;1253;63730;-56
2023/08/21 09:39:35;;;;;;;14.30;10.50;;;;;;;31.12;42.39;100552.25;105598;1258;60546;-57
2023/08/21 09:42:07;;;;;;;12.50;10.30;;;;;;;31.14;42.38;100553.45;105556;1257;60420;-57
2023/08/21 09:44:39;;;;;;;12.70;10.40;;;;;;;31.13;42.06;100557.09;105856;1253;63691;-56
2023/08/21 09:47:15;;;;;;;11.10;9.90;;;;;;;31.15;42.18;100556.77;105160;1266;60436;-58
2023/08/21 09:49:43;;;;;;;14.70;10.50;;;;;;;31.13;42.04;100556.32;105051;1264;64270;-56
2023/08/21 09:52:20;;;;;;;10.90;9.80;;;;;;;31.06;42.31;100557.23;105565;1253;60561;-56
2023/08/21 09:54:53;;;;;;;14.40;10.50;;;;;;;31.00;42.52;100551.58;105545;1253;60455;-57
2023/08/21 09:57:24;;;;;;;12.20;10.60;;;;;;;31.00;42.30;100546.36;105071;1253;64919;-57
2023/08/21 09:59:52;;;;;;;11.90;10.60;;;;;;;31.05;42.07;100545.02;105462;1259;60454;-54
2023/08/21 10:02:23;;;;;;;12.10;10.80;;;;;;;31.11;41.96;100545.00;105576;1257;63683;-54
2023/08/21 10:04:50;;;;;;;13.10;11.00;;;;;;;31.20;42.05;100544.39;105605;1253;60457;-57
2023/08/21 10:07:22;;;;;;;12.30;11.00;;;;;;;31.32;41.64;100541.29;105668;1255;60386;-56
2023/08/21 10:09:49;;;;;;;11.90;10.50;;;;;;;31.43;40.85;100541.39;105484;1259;65473;-56
2023/08/21 10:12:17;;;;;;;10.90;9.80;;;;;;;31.55;40.85;100536.52;105413;1253;61364;-56
2023/08/21 10:14:45;;;;;;;14.10;10.00;;;;;;;31.66;40.81;100535.52;105502;1254;63845;-53
2023/08/21 10:17:12;;;;;;;12.20;11.10;;;;;;;31.77;40.45;100528.86;105472;1258;60855;-55
2023/08/21 10:19:41;;;;;;;14.20;9.60;;;;;;;31.83;40.29;100523.41;105373;1259;60449;-53
2023/08/21 10:22:09;;;;;;;12.80;10.00;;;;;;;31.85;40.26;100519.30;105381;1259;65015;-57
2023/08/21 10:24:37;;;;;;;10.20;9.20;;;;;;;31.82;39.58;100519.38;105502;1258;60498;-52
2023/08/21 10:27:08;;;;;;;13.50;10.50;;;;;;;31.78;39.63;100517.61;105521;1254;62500;-55
2023/08/21 10:29:36;;;;;;;11.30;10.20;;;;;;;31.73;40.54;100516.32;105473;1253;61007;-54
2023/08/21 10:32:05;;;;;;;11.50;10.30;;;;;;;31.67;40.82;100508.77;105572;1253;60371;-55
2023/08/21 10:34:35;;;;;;;14.40;10.20;;;;;;;31.60;41.12;100508.93;105488;1258;65475;-55
2023/08/21 10:37:05;;;;;;;14.60;10.40;;;;;;;31.60;41.56;100515.95;105528;1253;62241;-52
2023/08/21 10:39:35;;;;;;;13.90;11.00;;;;;;;31.66;41.43;100529.17;105541;1259;62531;-54
2023/08/21 10:42:13;;;;;;;11.90;10.50;;;;;;;31.72;40.81;100534.93;105619;1253;60532;-54
2023/08/21 10:44:41;;;;;;;10.00;8.50;;;;;;;31.74;40.63;100535.32;105460;1258;60480;-55
2023/08/21 10:47:16;;;;;;;11.40;8.20;;;;;;;31.70;39.07;100530.34;105695;1257;63621;-55
2023/08/21 10:49:46;;;;;;;11.00;8.20;;;;;;;31.62;38.87;100525.38;105699;1254;61577;-55
2023/08/21 10:52:15;;;;;;;8.60;7.70;;;;;;;31.51;38.93;100526.09;105249;1253;62475;-54
2023/08/21 10:54:51;;;;;;;12.20;8.60;;;;;;;31.39;38.87;100527.27;105415;1258;60519;-54
2023/08/21 10:57:19;;;;;;;10.70;9.60;;;;;;;31.28;39.82;100528.38;105656;1254;60469;-55
2023/08/21 11:00:12;;;;;;;11.20;9.80;;;;;;;31.16;41.78;100531.14;104700;1260;65002;-55
2023/08/21 11:02:41;;;;;;;12.10;11.00;;;;;;;30.94;44.84;100539.38;105328;1253;61282;-56
2023/08/21 11:05:09;;;;;;;11.80;10.70;;;;;;;30.60;47.70;100556.05;105615;1256;63681;-56
2023/08/21 11:07:47;;;;;;;13.10;11.50;;;;;;;30.07;49.29;100558.88;106324;1257;60445;-55
2023/08/21 11:10:21;;;;;;;12.30;11.10;;;;;;;29.52;50.82;100564.54;105216;1253;62012;-58
2023/08/21 11:12:49;;;;;;;14.40;11.00;;;;;;;29.08;51.47;100565.70;105484;1258;64957;-57
2023/08/21 11:15:17;;;;;;;9.00;7.70;;;;;;;28.76;51.79;100569.79;105453;1253;62854;-58
2023/08/21 11:17:56;;;;;;;8.10;6.50;;;;;;;28.56;51.27;100572.75;107709;1254;62551;-58
2023/08/21 11:20:31;;;;;;;8.40;6.50;;;;;;;28.37;51.55;100571.71;105729;1259;61212;-56